Time;durP1;ratioP1;P1;durP2;ratioP2;P2;SDS_P1;SDS_P2;PMS_P1;PMS_P2;Temp;Humidity;BMP_temperature;BMP_pressure;BME280_temperature;BME280_humidity;BME280_pressure;Samples;Min_cycle;Max_cycle;Signal;HPM_P1;HPM_P2
2022/08/19 00:01:36;;;;;;;7.00;4.78;;;;;;;20.01;100.00;101303.72;5010315;28;20187;-62
2022/08/19 00:12:02;;;;;;;5.63;5.13;;;;;;;19.93;100.00;101303.88;4891363;28;20056;-61
2022/08/19 00:14:32;;;;;;;6.07;4.63;;;;;;;19.87;100.00;101300.16;4903140;29;20052;-61
2022/08/19 00:17:00;;;;;;;6.13;4.55;;;;;;;19.87;100.00;101307.31;4902293;29;20052;-62
2022/08/19 00:19:26;;;;;;;4.65;3.97;;;;;;;19.81;100.00;101298.28;4910186;29;20449;-62
2022/08/19 00:21:54;;;;;;;4.95;4.40;;;;;;;19.78;100.00;101298.69;4906495;29;20404;-62
2022/08/19 00:24:20;;;;;;;4.27;3.87;;;;;;;19.75;100.00;101307.06;4903937;29;20062;-61
2022/08/19 00:26:46;;;;;;;4.60;4.05;;;;;;;19.69;100.00;101300.63;4905807;29;20531;-61
2022/08/19 00:29:16;;;;;;;4.22;3.83;;;;;;;19.65;100.00;101295.91;4899127;29;20059;-64
2022/08/19 00:31:44;;;;;;;5.88;4.10;;;;;;;19.61;100.00;101292.00;4911485;29;20145;-61
2022/08/19 00:34:12;;;;;;;5.38;4.30;;;;;;;19.59;100.00;101300.16;4903083;29;20560;-61
2022/08/19 00:36:40;;;;;;;6.65;4.28;;;;;;;19.55;100.00;101285.59;4909837;29;20060;-61
2022/08/19 00:39:08;;;;;;;6.18;4.53;;;;;;;19.53;100.00;101291.13;4910369;29;20127;-61
2022/08/19 00:41:34;;;;;;;6.15;4.55;;;;;;;19.47;100.00;101286.56;4896409;29;20054;-61
2022/08/19 00:44:13;;;;;;;5.15;4.45;;;;;;;19.49;100.00;101297.84;4904723;29;20055;-62
2022/08/19 00:46:44;;;;;;;5.20;4.05;;;;;;;19.45;100.00;101290.47;4905004;29;20492;-62
2022/08/19 00:49:35;;;;;;;7.10;4.93;;;;;;;19.40;100.00;101303.50;4910264;29;20044;-62
2022/08/19 00:52:08;;;;;;;6.10;4.75;;;;;;;19.41;100.00;101303.31;4904148;29;20481;-62
2022/08/19 00:54:37;;;;;;;7.65;5.70;;;;;;;19.35;100.00;101304.91;4905912;29;20052;-61
2022/08/19 00:57:07;;;;;;;5.60;4.90;;;;;;;19.32;100.00;101301.81;4905241;29;20051;-62
2022/08/19 00:59:36;;;;;;;6.63;5.18;;;;;;;19.31;100.00;101300.19;4907120;29;20055;-60
2022/08/19 01:02:24;;;;;;;5.72;5.13;;;;;;;19.29;100.00;101302.22;4910593;29;20127;-62
2022/08/19 01:04:50;;;;;;;6.10;5.00;;;;;;;19.24;100.00;101296.63;4900648;29;20123;-61
2022/08/19 01:07:17;;;;;;;7.25;4.95;;;;;;;19.22;100.00;101296.81;4906476;29;20485;-62
2022/08/19 01:09:45;;;;;;;7.45;5.15;;;;;;;19.19;100.00;101305.19;4896604;29;20059;-61
2022/08/19 01:12:11;;;;;;;6.57;5.38;;;;;;;19.17;100.00;101300.06;4897929;29;20048;-61
2022/08/19 01:14:40;;;;;;;5.65;4.80;;;;;;;19.20;100.00;101298.03;4901509;29;20055;-61
2022/08/19 01:17:10;;;;;;;6.63;5.55;;;;;;;19.18;100.00;101306.19;4914627;29;20428;-61
2022/08/19 01:19:41;;;;;;;7.30;5.75;;;;;;;19.14;100.00;101302.28;4909058;29;20378;-61
2022/08/19 01:22:30;;;;;;;8.05;6.30;;;;;;;19.12;100.00;101297.13;4897993;29;20055;-61
2022/08/19 01:25:00;;;;;;;7.90;6.32;;;;;;;19.10;100.00;101309.00;4906224;29;20056;-62
2022/08/19 01:27:36;;;;;;;7.50;6.68;;;;;;;19.10;100.00;101303.66;4903411;29;20083;-62
2022/08/19 01:30:13;;;;;;;9.18;7.35;;;;;;;19.14;100.00;101311.06;4909499;29;20048;-61
2022/08/19 01:32:40;;;;;;;9.63;6.82;;;;;;;19.13;100.00;101312.09;4904667;29;20515;-61
2022/08/19 01:35:07;;;;;;;9.63;7.63;;;;;;;19.17;100.00;101309.88;4892854;29;20052;-61
2022/08/19 01:38:08;;;;;;;9.85;8.00;;;;;;;19.23;100.00;101300.28;4899008;29;20082;-62
2022/08/19 01:40:38;;;;;;;12.05;8.85;;;;;;;19.22;100.00;101301.31;4897886;29;20142;-61
2022/08/19 01:43:05;;;;;;;11.70;8.30;;;;;;;19.21;100.00;101297.84;4901234;29;20052;-61
2022/08/19 01:45:33;;;;;;;9.50;7.70;;;;;;;19.26;100.00;101303.38;4908322;29;20064;-62
2022/08/19 01:48:02;;;;;;;9.63;8.05;;;;;;;19.25;100.00;101300.91;4907885;29;20293;-62
2022/08/19 01:50:29;;;;;;;;;;;;;;;19.31;100.00;101311.63;4896035;29;20052;-61
2022/08/19 01:52:56;;;;;;;12.05;8.88;;;;;;;19.31;100.00;101314.28;4908297;29;19927;-61
2022/08/19 01:55:31;;;;;;;11.27;9.10;;;;;;;19.36;100.00;101313.69;4903769;29;20503;-61
2022/08/19 01:58:00;;;;;;;11.23;9.57;;;;;;;19.42;100.00;101309.44;4902543;29;20138;-61
2022/08/19 02:00:29;;;;;;;12.68;10.35;;;;;;;19.47;100.00;101310.53;4903171;29;20052;-61
2022/08/19 02:02:56;;;;;;;13.70;10.55;;;;;;;19.46;100.00;101308.84;4904594;29;20045;-61
2022/08/19 02:05:22;;;;;;;13.10;9.77;;;;;;;19.50;100.00;101315.47;4902763;29;20079;-62
2022/08/19 02:07:49;;;;;;;14.02;10.25;;;;;;;19.51;100.00;101318.94;4898954;29;20056;-63
2022/08/19 02:10:20;;;;;;;16.13;11.50;;;;;;;19.60;100.00;101316.94;4907577;29;20066;-61
2022/08/19 02:12:49;;;;;;;14.07;10.73;;;;;;;19.60;100.00;101317.78;4903955;29;20048;-61
2022/08/19 02:15:19;;;;;;;13.30;11.90;;;;;;;19.65;100.00;101323.34;4907175;29;20552;-61
2022/08/19 02:17:46;;;;;;;16.33;11.05;;;;;;;19.73;100.00;101319.75;4902434;29;20063;-61
2022/08/19 02:20:14;;;;;;;12.02;10.38;;;;;;;19.73;100.00;101315.22;4908095;29;20068;-61
2022/08/19 02:22:42;;;;;;;11.68;10.35;;;;;;;19.74;100.00;101316.88;4910766;29;20095;-61
2022/08/19 02:25:11;;;;;;;12.32;11.02;;;;;;;19.75;100.00;101315.03;4905538;29;20056;-62
2022/08/19 02:27:38;;;;;;;15.10;11.52;;;;;;;19.73;100.00;101323.22;4909512;29;20048;-62
2022/08/19 02:30:11;;;;;;;14.23;11.57;;;;;;;19.70;100.00;101322.78;4902616;29;20059;-61
2022/08/19 02:32:39;;;;;;;14.85;11.65;;;;;;;19.64;100.00;101320.88;4903111;29;20052;-61
2022/08/19 02:35:20;;;;;;;13.80;11.68;;;;;;;19.60;100.00;101323.13;4899230;29;20384;-61
2022/08/19 02:40:34;;;;;;;16.58;11.68;;;;;;;19.52;100.00;101328.56;4901900;29;20048;-61
2022/08/19 02:43:07;;;;;;;14.13;12.32;;;;;;;19.54;100.00;101326.53;4905905;29;20089;-59
2022/08/19 02:45:35;;;;;;;13.45;11.40;;;;;;;19.53;100.00;101323.03;4908589;29;20058;-61
2022/08/19 02:48:06;;;;;;;15.57;11.20;;;;;;;19.50;100.00;101320.78;4900412;29;20104;-61
2022/08/19 02:50:50;;;;;;;13.32;11.90;;;;;;;19.50;100.00;101326.13;4912841;29;20103;-61
2022/08/19 02:53:18;;;;;;;14.00;12.52;;;;;;;19.39;100.00;101313.34;4899711;29;20063;-63
2022/08/19 02:55:46;;;;;;;14.05;11.82;;;;;;;19.39;100.00;101321.31;4909698;29;20052;-61
2022/08/19 02:58:14;;;;;;;13.73;12.25;;;;;;;19.33;100.00;101309.59;4899683;29;20059;-61
2022/08/19 03:00:47;;;;;;;12.98;11.57;;;;;;;19.32;100.00;101317.75;4901396;29;20044;-61
2022/08/19 03:03:14;;;;;;;13.68;11.65;;;;;;;19.24;100.00;101318.72;4900391;29;20052;-63
2022/08/19 03:05:41;;;;;;;15.75;12.50;;;;;;;19.20;100.00;101312.13;4909782;29;20058;-61
2022/08/19 03:08:22;;;;;;;15.50;12.40;;;;;;;19.09;100.00;101313.50;4907371;29;20500;-61
2022/08/19 03:10:49;;;;;;;14.98;12.45;;;;;;;19.05;100.00;101317.53;4903959;29;20079;-62
2022/08/19 03:13:17;;;;;;;15.73;13.15;;;;;;;19.05;100.00;101319.38;4911089;29;20060;-61
2022/08/19 03:15:45;;;;;;;14.23;11.65;;;;;;;19.01;100.00;101318.09;4904617;29;20055;-59
2022/08/19 03:18:13;;;;;;;14.45;11.93;;;;;;;18.99;100.00;101320.13;4902659;29;20135;-61
2022/08/19 03:20:48;;;;;;;14.38;12.85;;;;;;;18.99;100.00;101320.94;4904990;29;20540;-61
2022/08/19 03:23:16;;;;;;;13.43;11.70;;;;;;;18.92;100.00;101320.88;4902493;29;20052;-61
2022/08/19 03:25:45;;;;;;;14.07;11.88;;;;;;;18.88;100.00;101318.81;4907194;29;20062;-61
2022/08/19 03:28:23;;;;;;;12.90;11.60;;;;;;;18.80;100.00;101325.06;4902043;29;20059;-61
2022/08/19 03:31:07;;;;;;;14.80;12.52;;;;;;;18.80;100.00;101329.53;4911345;29;20519;-63
2022/08/19 03:33:54;;;;;;;13.20;11.40;;;;;;;18.70;100.00;101328.00;4898848;29;20059;-62
2022/08/19 03:36:23;;;;;;;12.90;11.55;;;;;;;18.76;100.00;101334.41;4900761;29;20056;-62
2022/08/19 03:38:54;;;;;;;14.80;11.95;;;;;;;18.76;100.00;101335.22;4893894;29;20050;-61
2022/08/19 03:41:31;;;;;;;16.55;13.38;;;;;;;18.73;100.00;101322.28;4901664;29;20071;-61
2022/08/19 03:44:10;;;;;;;13.18;11.75;;;;;;;18.67;100.00;101322.22;4902289;29;20131;-61
2022/08/19 03:46:44;;;;;;;16.30;12.18;;;;;;;18.60;100.00;101329.28;4909473;29;20465;-61
2022/08/19 03:49:10;;;;;;;13.63;12.02;;;;;;;18.58;100.00;101326.81;4906216;29;20067;-61
2022/08/19 03:51:41;;;;;;;15.85;12.80;;;;;;;18.59;100.00;101331.13;4907003;29;20052;-61
2022/08/19 03:54:11;;;;;;;14.90;12.73;;;;;;;18.57;100.00;101336.63;4911341;29;20060;-62
2022/08/19 03:56:39;;;;;;;15.18;12.25;;;;;;;18.55;100.00;101329.84;4902654;29;20060;-61
2022/08/19 03:59:08;;;;;;;16.02;12.88;;;;;;;18.54;100.00;101328.19;4908420;29;20071;-60
2022/08/19 04:01:35;;;;;;;15.55;12.18;;;;;;;18.52;100.00;101333.72;4903297;28;20052;-63
2022/08/19 04:04:02;;;;;;;13.43;12.02;;;;;;;18.48;100.00;101326.28;4904389;29;20052;-61
2022/08/19 04:06:33;;;;;;;16.10;12.55;;;;;;;18.50;100.00;101321.63;4906736;29;20052;-61
2022/08/19 04:09:02;;;;;;;16.38;12.20;;;;;;;18.45;100.00;101324.84;4910677;29;20055;-61
2022/08/19 04:11:53;;;;;;;12.95;11.57;;;;;;;18.48;100.00;101332.41;4909145;29;20046;-61
2022/08/19 04:14:23;;;;;;;14.68;11.63;;;;;;;18.47;100.00;101325.47;4898805;29;20056;-61
2022/08/19 04:16:51;;;;;;;17.13;12.00;;;;;;;18.46;100.00;101323.81;4899376;29;20538;-61
2022/08/19 04:19:18;;;;;;;12.35;10.98;;;;;;;18.46;100.00;101325.66;4897466;29;20051;-61
2022/08/19 04:21:47;;;;;;;13.32;11.13;;;;;;;18.45;100.00;101321.38;4906470;29;20266;-61
2022/08/19 04:24:14;;;;;;;12.73;10.38;;;;;;;18.43;100.00;101324.19;4905491;29;20064;-63
2022/08/19 04:26:41;;;;;;;15.73;10.98;;;;;;;18.38;100.00;101314.16;4909644;29;20055;-62
2022/08/19 04:29:11;;;;;;;14.50;11.63;;;;;;;18.36;100.00;101302.03;4908337;29;20478;-61
2022/08/19 04:31:39;;;;;;;13.88;11.05;;;;;;;18.31;100.00;101307.94;4903296;29;20066;-61
2022/08/19 04:34:08;;;;;;;11.82;10.20;;;;;;;18.29;100.00;101301.97;4905560;29;20052;-61
2022/08/19 04:36:35;;;;;;;;;;;;;;;18.28;100.00;101313.59;4902142;29;20056;-62
2022/08/19 04:39:06;;;;;;;12.52;9.85;;;;;;;18.23;100.00;101294.75;4908195;29;19929;-61
2022/08/19 04:44:18;;;;;;;13.20;9.68;;;;;;;18.10;100.00;101297.22;4898309;29;20059;-61
2022/08/19 04:46:47;;;;;;;11.27;9.20;;;;;;;18.13;100.00;101304.81;4900708;29;20055;-61
2022/08/19 04:49:21;;;;;;;14.18;11.20;;;;;;;18.10;100.00;101297.22;4907407;29;20099;-60
2022/08/19 04:51:49;;;;;;;13.45;10.65;;;;;;;18.04;100.00;101300.63;4907238;29;20055;-62
2022/08/19 04:54:17;;;;;;;12.10;10.60;;;;;;;18.03;100.00;101296.31;4900870;29;20056;-61
2022/08/19 04:57:06;;;;;;;16.63;11.05;;;;;;;17.99;100.00;101301.16;4904406;29;20188;-61
2022/08/19 04:59:33;;;;;;;15.55;10.93;;;;;;;17.95;100.00;101310.50;4893782;29;20103;-61
2022/08/19 05:02:00;;;;;;;13.80;10.68;;;;;;;17.91;100.00;101306.56;4897791;29;20454;-62
2022/08/19 05:04:31;;;;;;;15.07;10.40;;;;;;;17.90;100.00;101307.59;4897737;29;20056;-62
2022/08/19 05:06:58;;;;;;;14.65;10.88;;;;;;;17.90;100.00;101312.91;4905744;29;20091;-61
2022/08/19 05:09:27;;;;;;;13.93;11.23;;;;;;;17.90;100.00;101310.25;4902358;29;20072;-61
2022/08/19 05:11:58;;;;;;;14.55;11.30;;;;;;;17.86;100.00;101311.63;4894426;29;20076;-61
2022/08/19 05:14:24;;;;;;;13.15;11.25;;;;;;;17.90;100.00;101315.56;4892979;29;20055;-61
2022/08/19 05:16:51;;;;;;;13.13;10.35;;;;;;;17.92;100.00;101306.38;4889417;29;20473;-61
2022/08/19 05:22:43;;;;;;;14.63;11.43;;;;;;;18.00;100.00;101317.94;4900066;29;20056;-61
2022/08/19 05:25:13;;;;;;;12.90;11.32;;;;;;;18.10;100.00;101318.47;4901005;29;20164;-61
2022/08/19 05:27:41;;;;;;;13.90;12.25;;;;;;;18.13;100.00;101329.56;4892543;29;20080;-61
2022/08/19 05:30:09;;;;;;;15.82;12.27;;;;;;;18.15;100.00;101316.91;4901493;29;20049;-62
2022/08/19 05:32:36;;;;;;;15.65;12.00;;;;;;;18.20;100.00;101319.00;4893075;29;20072;-61
2022/08/19 05:35:04;;;;;;;11.98;10.30;;;;;;;18.27;100.00;101321.75;4895513;29;20497;-61
2022/08/19 05:37:30;;;;;;;14.95;12.52;;;;;;;18.30;100.00;101316.88;4896543;29;20382;-60
2022/08/19 05:39:57;;;;;;;16.27;11.70;;;;;;;18.32;100.00;101320.19;4885249;29;20045;-61
2022/08/19 05:42:23;;;;;;;15.82;12.75;;;;;;;18.36;100.00;101321.44;4901730;29;20063;-61
2022/08/19 05:44:50;;;;;;;15.43;12.15;;;;;;;18.44;100.00;101327.69;4899665;29;20063;-61
2022/08/19 05:47:19;;;;;;;17.95;14.68;;;;;;;18.47;100.00;101330.78;4910329;29;20080;-60
2022/08/19 05:49:46;;;;;;;16.05;13.07;;;;;;;18.53;100.00;101342.50;4898452;29;20112;-62
2022/08/19 05:52:15;;;;;;;20.13;14.93;;;;;;;18.57;100.00;101330.50;4906267;29;20059;-62
2022/08/19 05:54:47;;;;;;;19.75;16.20;;;;;;;18.61;100.00;101336.25;4895359;29;20095;-61
2022/08/19 05:57:20;;;;;;;18.83;15.68;;;;;;;18.62;100.00;101330.78;4901398;29;20112;-62
2022/08/19 05:59:48;;;;;;;20.10;14.35;;;;;;;18.64;100.00;101330.56;4912124;29;20044;-63
2022/08/19 06:02:18;;;;;;;17.73;14.82;;;;;;;18.71;100.00;101326.97;4901278;29;20079;-61
2022/08/19 06:04:44;;;;;;;23.60;16.10;;;;;;;18.70;100.00;101337.78;4910762;29;20048;-61
2022/08/19 06:07:11;;;;;;;23.15;17.35;;;;;;;18.67;100.00;101336.31;4901316;29;20058;-62
2022/08/19 06:09:39;;;;;;;20.95;16.45;;;;;;;18.74;100.00;101333.75;4898649;29;20135;-61
2022/08/19 06:12:06;;;;;;;24.17;17.90;;;;;;;18.66;100.00;101336.50;4906268;29;20054;-61
2022/08/19 06:14:35;;;;;;;29.45;19.83;;;;;;;18.64;100.00;101322.59;4908997;29;20056;-61
2022/08/19 06:17:07;;;;;;;27.25;18.92;;;;;;;18.60;100.00;101331.94;4900722;29;20059;-62
2022/08/19 06:19:34;;;;;;;28.58;20.45;;;;;;;18.54;100.00;101334.34;4892420;29;20092;-62
2022/08/19 06:22:07;;;;;;;32.92;19.77;;;;;;;18.58;100.00;101334.78;4893028;29;20288;-61
2022/08/19 06:24:35;;;;;;;26.52;17.95;;;;;;;18.67;100.00;101338.97;4890585;29;20561;-62
2022/08/19 06:27:02;;;;;;;26.60;18.77;;;;;;;18.70;100.00;101335.97;4898185;29;20063;-61
2022/08/19 06:29:29;;;;;;;29.53;19.50;;;;;;;18.76;100.00;101339.72;4892334;29;20088;-62
2022/08/19 06:31:58;;;;;;;77.55;22.50;;;;;;;18.89;100.00;101342.50;4905362;29;20311;-61
2022/08/19 06:34:27;;;;;;;46.67;22.27;;;;;;;18.95;100.00;101346.25;4904815;29;20059;-59
2022/08/19 06:36:55;;;;;;;37.58;21.27;;;;;;;19.03;100.00;101340.81;4899109;29;20063;-61
2022/08/19 06:39:25;;;;;;;28.67;21.13;;;;;;;19.07;100.00;101344.78;4903571;29;20087;-61
2022/08/19 06:41:55;;;;;;;26.67;20.27;;;;;;;19.16;100.00;101340.94;4890231;29;20533;-62
2022/08/19 06:44:27;;;;;;;26.48;19.98;;;;;;;19.22;100.00;101339.38;4910268;29;20106;-62
2022/08/19 06:46:55;;;;;;;31.73;24.08;;;;;;;19.29;100.00;101345.56;4907700;29;20060;-60
2022/08/19 06:49:23;;;;;;;31.70;22.83;;;;;;;19.42;100.00;101341.38;4895227;29;20052;-62
2022/08/19 06:51:50;;;;;;;43.40;28.80;;;;;;;19.50;100.00;101347.41;4893177;29;20151;-63
2022/08/19 06:54:18;;;;;;;35.17;23.90;;;;;;;19.61;100.00;101348.69;4892052;29;20060;-61
2022/08/19 06:56:46;;;;;;;51.15;30.90;;;;;;;19.67;100.00;101350.56;4902387;29;20111;-63
2022/08/19 06:59:17;;;;;;;53.78;33.45;;;;;;;19.73;100.00;101357.81;4902522;29;20060;-61
2022/08/19 07:01:48;;;;;;;62.78;34.30;;;;;;;19.75;100.00;101354.97;4898506;29;20051;-61
2022/08/19 07:04:17;;;;;;;75.78;37.80;;;;;;;19.75;100.00;101352.31;4895343;29;20063;-62
2022/08/19 07:06:44;;;;;;;76.57;38.92;;;;;;;19.77;100.00;101347.59;4902400;29;20063;-61
2022/08/19 07:09:20;;;;;;;86.40;38.55;;;;;;;19.79;100.00;101344.75;4922466;29;20522;-62
2022/08/19 07:11:49;;;;;;;88.85;41.28;;;;;;;19.84;100.00;101345.81;4901482;29;20049;-62
2022/08/19 07:14:18;;;;;;;100.97;42.67;;;;;;;19.91;100.00;101351.19;4902286;29;20059;-59
2022/08/19 07:16:47;;;;;;;76.70;37.10;;;;;;;20.02;100.00;101355.97;4893085;29;20056;-60
2022/08/19 07:19:14;;;;;;;78.07;37.92;;;;;;;20.04;100.00;101363.75;4904310;29;20063;-61
2022/08/19 07:21:46;;;;;;;84.75;41.10;;;;;;;20.03;100.00;101368.28;4896442;29;20604;-61
2022/08/19 07:24:12;;;;;;;82.35;40.88;;;;;;;20.12;100.00;101368.94;4906699;29;20056;-61
2022/08/19 07:26:41;;;;;;;89.82;39.13;;;;;;;20.17;100.00;101363.00;4903070;29;20924;-61
2022/08/19 07:29:10;;;;;;;84.43;39.70;;;;;;;20.20;100.00;101373.28;4893807;29;20055;-61
2022/08/19 07:31:36;;;;;;;82.00;38.45;;;;;;;20.24;100.00;101374.53;4903675;29;20056;-61
2022/08/19 07:34:09;;;;;;;84.65;39.42;;;;;;;20.30;100.00;101376.38;4897309;29;20054;-61
2022/08/19 07:36:40;;;;;;;84.30;39.08;;;;;;;20.28;100.00;101370.44;4904382;29;20414;-61
2022/08/19 07:39:19;;;;;;;79.10;38.88;;;;;;;20.36;100.00;101378.25;4898311;29;20063;-62
2022/08/19 07:41:46;;;;;;;76.85;38.60;;;;;;;20.41;100.00;101380.34;4903269;29;20052;-62
2022/08/19 07:44:14;;;;;;;75.00;38.50;;;;;;;20.41;100.00;101378.50;4884316;29;20067;-62
2022/08/19 07:46:44;;;;;;;74.57;39.53;;;;;;;20.46;100.00;101388.56;4893060;29;20080;-62
2022/08/19 07:49:18;;;;;;;79.22;42.22;;;;;;;20.56;100.00;101381.00;4893996;29;20054;-62
2022/08/19 07:51:52;;;;;;;84.72;43.45;;;;;;;20.65;100.00;101390.50;4904860;29;20070;-61
2022/08/19 07:54:19;;;;;;;87.18;46.75;;;;;;;20.47;100.00;101385.69;4909165;29;20068;-63
2022/08/19 07:56:46;;;;;;;87.18;44.17;;;;;;;20.43;100.00;101394.31;4900903;29;20523;-62
2022/08/19 07:59:12;;;;;;;88.68;49.33;;;;;;;20.46;100.00;101397.38;4902067;29;20330;-62
2022/08/19 08:01:39;;;;;;;80.28;48.53;;;;;;;20.53;100.00;101398.22;4905346;29;20052;-61
2022/08/19 08:09:41;;;;;;;69.82;45.42;;;;;;;20.90;100.00;101400.66;4898804;29;20048;-61
2022/08/19 08:12:18;;;;;;;73.18;49.60;;;;;;;20.78;100.00;101395.09;4902366;29;21560;-62
2022/08/19 08:15:04;;;;;;;66.88;46.50;;;;;;;20.82;100.00;101387.50;4893686;29;20052;-61
2022/08/19 08:17:34;;;;;;;64.32;44.83;;;;;;;20.89;100.00;101389.16;4903710;29;20131;-62
2022/08/19 08:20:16;;;;;;;70.68;47.63;;;;;;;21.05;100.00;101396.00;4893439;29;20052;-61
2022/08/19 08:25:31;;;;;;;65.88;45.97;;;;;;;21.57;100.00;101408.81;4886538;29;20047;-64
2022/08/19 08:27:59;;;;;;;60.70;44.88;;;;;;;21.72;100.00;101407.56;4898973;29;20052;-61
2022/08/19 08:30:28;;;;;;;57.78;42.08;;;;;;;21.87;100.00;101410.00;4900507;29;20119;-61
2022/08/19 08:32:58;;;;;;;60.28;44.78;;;;;;;22.24;100.00;101417.56;4907227;29;20095;-62
2022/08/19 08:35:25;;;;;;;61.00;42.22;;;;;;;22.54;100.00;101411.72;4896374;29;20140;-62
2022/08/19 08:37:53;;;;;;;51.75;37.47;;;;;;;22.77;100.00;101411.22;4893687;29;20060;-63
2022/08/19 08:40:26;;;;;;;54.10;36.75;;;;;;;22.82;100.00;101414.91;4895273;29;20091;-61
2022/08/19 08:43:02;;;;;;;53.40;38.03;;;;;;;23.01;100.00;101410.50;4902080;29;20052;-61
2022/08/19 08:45:38;;;;;;;55.17;37.72;;;;;;;23.21;100.00;101407.72;4904948;29;20054;-62
2022/08/19 08:48:20;;;;;;;52.05;36.22;;;;;;;23.38;100.00;101409.88;4890852;29;20055;-61
2022/08/19 08:50:53;;;;;;;51.70;34.83;;;;;;;23.42;100.00;101403.88;4894906;29;20123;-62
2022/08/19 08:53:21;;;;;;;43.92;32.88;;;;;;;23.59;100.00;101412.16;4896102;29;20062;-62
2022/08/19 08:56:00;;;;;;;40.05;27.27;;;;;;;23.83;100.00;101407.84;4899061;29;20410;-62
2022/08/19 08:58:54;;;;;;;36.60;26.48;;;;;;;23.91;100.00;101408.63;4899088;29;20536;-62
2022/08/19 09:01:20;;;;;;;39.90;25.42;;;;;;;23.95;100.00;101410.63;4895967;29;20052;-62
2022/08/19 09:03:47;;;;;;;42.28;29.08;;;;;;;24.03;100.00;101409.53;4902981;29;20049;-61
2022/08/19 09:06:36;;;;;;;37.08;25.13;;;;;;;24.36;98.19;101408.34;4889328;29;20072;-62
2022/08/19 09:09:24;;;;;;;36.47;25.35;;;;;;;24.54;97.56;101413.75;4899994;29;20048;-61
2022/08/19 09:12:19;;;;;;;39.63;25.67;;;;;;;24.54;94.39;101405.72;4896737;29;20059;-62
2022/08/19 09:14:57;;;;;;;35.60;23.05;;;;;;;24.62;95.66;101402.72;4889450;29;20119;-61
2022/08/19 09:17:30;;;;;;;32.03;22.25;;;;;;;24.79;95.41;101400.22;4896378;29;20048;-62
2022/08/19 09:20:25;;;;;;;32.63;24.52;;;;;;;24.78;96.08;101406.63;4907201;29;20135;-63
2022/08/19 09:22:51;;;;;;;31.20;21.95;;;;;;;24.90;95.28;101404.00;4894812;29;20066;-62
2022/08/19 09:25:24;;;;;;;38.13;25.67;;;;;;;24.90;93.45;101401.31;4900627;29;20762;-62
2022/08/19 09:27:56;;;;;;;33.75;23.48;;;;;;;25.12;94.14;101403.47;4898693;29;20056;-63
2022/08/19 09:30:32;;;;;;;31.80;23.33;;;;;;;25.17;90.80;101404.44;4901993;29;20055;-61
2022/08/19 09:32:59;;;;;;;30.85;22.83;;;;;;;25.13;92.74;101408.63;4908319;29;20515;-60
2022/08/19 09:35:31;;;;;;;38.95;25.40;;;;;;;24.91;93.76;101402.94;4899876;29;20515;-61
2022/08/19 09:38:15;;;;;;;36.92;25.50;;;;;;;24.72;94.93;101404.03;4903306;29;20707;-61
2022/08/19 09:40:42;;;;;;;40.95;27.35;;;;;;;24.79;96.63;101410.13;4899199;29;20520;-62
2022/08/19 09:43:10;;;;;;;37.05;25.27;;;;;;;24.97;100.00;101404.72;4896299;29;20058;-62
2022/08/19 09:45:39;;;;;;;41.17;29.23;;;;;;;25.08;100.00;101413.03;4886788;29;20100;-62
2022/08/19 09:48:06;;;;;;;40.47;27.80;;;;;;;25.21;100.00;101413.66;4893248;29;20056;-61
2022/08/19 09:50:36;;;;;;;38.42;28.77;;;;;;;25.02;100.00;101418.25;4894708;29;20294;-59
2022/08/19 09:53:02;;;;;;;42.10;27.55;;;;;;;25.30;100.00;101416.84;4894257;29;20523;-62
2022/08/19 09:55:32;;;;;;;38.60;28.10;;;;;;;25.35;99.36;101422.38;4903079;29;20048;-62
2022/08/19 09:58:00;;;;;;;36.55;26.08;;;;;;;25.17;97.22;101430.44;4894319;29;20059;-61
2022/08/19 10:00:27;;;;;;;41.15;27.90;;;;;;;25.22;96.91;101423.38;4899519;29;20548;-61
2022/08/19 10:02:53;;;;;;;44.50;27.80;;;;;;;25.30;97.44;101429.47;4901161;29;20483;-62
2022/08/19 10:08:08;;;;;;;39.83;25.90;;;;;;;25.32;96.97;101430.88;4891160;29;20477;-61
2022/08/19 10:10:45;;;;;;;36.53;25.88;;;;;;;25.47;92.69;101435.00;4900127;29;20425;-61
2022/08/19 10:13:15;;;;;;;34.65;23.08;;;;;;;25.44;91.57;101433.56;4901064;29;20472;-62
2022/08/19 10:15:42;;;;;;;30.33;21.70;;;;;;;25.53;92.37;101426.81;4904033;29;20078;-61
2022/08/19 10:18:15;;;;;;;31.50;21.42;;;;;;;25.58;93.68;101437.69;4903307;29;20450;-61
2022/08/19 10:20:42;;;;;;;30.60;21.63;;;;;;;25.53;90.39;101437.56;4894476;29;20064;-63
2022/08/19 10:23:09;;;;;;;29.38;20.90;;;;;;;25.68;90.86;101429.06;4904433;29;20059;-60
2022/08/19 10:25:35;;;;;;;30.13;21.30;;;;;;;25.65;91.30;101427.66;4896634;29;20052;-61
2022/08/19 10:28:05;;;;;;;27.77;21.77;;;;;;;25.45;89.07;101429.84;4901948;29;20071;-60
2022/08/19 10:30:36;;;;;;;27.65;20.38;;;;;;;25.60;87.16;101429.38;4901565;29;20055;-61
2022/08/19 10:33:03;;;;;;;33.45;21.70;;;;;;;25.62;87.22;101433.50;4900013;29;20516;-61
2022/08/19 10:35:37;;;;;;;30.70;21.13;;;;;;;25.55;88.07;101426.59;4907503;29;20052;-61
2022/08/19 10:38:22;;;;;;;25.83;19.88;;;;;;;25.62;85.47;101425.44;4897453;29;20048;-62
2022/08/19 10:41:06;;;;;;;30.55;21.20;;;;;;;25.62;83.06;101421.94;4906536;29;20066;-61
2022/08/19 10:43:36;;;;;;;27.73;18.95;;;;;;;26.00;84.38;101413.44;4903900;29;20048;-61
2022/08/19 10:46:05;;;;;;;29.05;20.30;;;;;;;25.82;82.31;101422.41;4909250;29;20127;-61
2022/08/19 10:48:40;;;;;;;32.50;22.70;;;;;;;25.75;81.94;101418.19;4895280;29;20501;-62
2022/08/19 10:53:53;;;;;;;30.38;20.25;;;;;;;25.70;80.52;101418.91;4901496;29;20059;-62
2022/08/19 10:59:04;;;;;;;28.98;21.02;;;;;;;26.06;80.90;101416.25;4900506;29;20052;-61
2022/08/19 11:01:33;;;;;;;29.42;22.40;;;;;;;26.32;79.36;101410.34;4901723;29;20162;-61
2022/08/19 11:04:02;;;;;;;28.50;20.50;;;;;;;26.49;80.58;101410.41;4911695;29;20087;-61
2022/08/19 11:06:30;;;;;;;29.05;20.77;;;;;;;26.64;81.04;101409.94;4893896;29;20044;-61
2022/08/19 11:08:59;;;;;;;36.92;22.65;;;;;;;26.61;78.71;101408.53;4893287;29;20060;-62
2022/08/19 11:11:28;;;;;;;26.80;20.17;;;;;;;26.52;78.52;101409.13;4894797;29;20051;-62
2022/08/19 11:13:54;;;;;;;26.92;18.80;;;;;;;26.78;80.46;101411.28;4906191;29;20072;-62
2022/08/19 11:16:26;;;;;;;26.75;19.52;;;;;;;26.81;77.07;101412.69;4899042;29;20456;-60
2022/08/19 11:18:58;;;;;;;26.80;18.63;;;;;;;26.88;79.72;101404.47;4904255;29;20482;-61
2022/08/19 11:21:33;;;;;;;26.50;20.05;;;;;;;26.54;79.00;101407.84;4903705;29;20727;-62
2022/08/19 11:24:06;;;;;;;23.92;17.92;;;;;;;26.68;78.57;101396.81;4897200;29;20416;-61
2022/08/19 11:26:35;;;;;;;28.92;20.20;;;;;;;26.65;78.67;101408.06;4905780;29;20055;-61
2022/08/19 11:29:03;;;;;;;25.70;19.17;;;;;;;26.84;77.08;101401.44;4903048;29;20056;-61
2022/08/19 11:31:32;;;;;;;25.88;17.65;;;;;;;27.22;78.01;101398.06;4903557;29;20048;-61
2022/08/19 11:34:02;;;;;;;31.15;20.65;;;;;;;27.41;73.53;101397.88;4899560;29;20143;-62
2022/08/19 11:36:31;;;;;;;25.48;18.95;;;;;;;27.39;73.94;101400.78;4896145;29;20052;-61
2022/08/19 11:38:57;;;;;;;21.23;16.80;;;;;;;27.59;75.14;101404.88;4903183;29;20402;-61
2022/08/19 11:41:24;;;;;;;27.40;20.35;;;;;;;27.74;73.96;101401.59;4898847;29;20185;-61
2022/08/19 11:43:53;;;;;;;22.90;17.00;;;;;;;27.71;74.25;101391.31;4904382;29;20416;-62
2022/08/19 11:46:22;;;;;;;24.83;18.23;;;;;;;27.74;73.44;101388.94;4891974;29;20060;-61
2022/08/19 11:48:50;;;;;;;22.75;17.83;;;;;;;27.85;73.80;101389.06;4898867;29;20485;-62
2022/08/19 11:51:20;;;;;;;24.23;19.10;;;;;;;28.12;74.15;101389.19;4896281;29;20068;-62
2022/08/19 11:53:46;;;;;;;23.20;18.60;;;;;;;28.08;73.55;101390.78;4909873;29;20496;-61
2022/08/19 11:56:12;;;;;;;23.08;17.85;;;;;;;28.34;73.23;101389.19;4903964;29;20056;-63